Bogota, Colombia
Current Conditions -  °F | °C
As of 1:00 AM on Sunday 26 Oct 2014 (Local Time) from SKBO Reporting Station
Drizzle Drizzle  
Wind Chill: 54°   Ceiling: 8000
Heat Index: 54°   Visibility: 5mi
Dew Point: 54°   Wind: 0mph
Humidity: 100%   Direction: NA
Pressure: 30.3"   Gusts: NA
Location:  4.63°N, 74.09°W
Report Text: SKBO 260600Z 00000KT 8000 DZ SCT017 BKN080 12/12 A3030
Loading
Personal Weather Stations






























Interactive Weather Map
Tropical Storm Tracking
New forecast layout! Learn more

10-Day Weather Forecast

Advertisements
Track Severe Weather on mobile